メインページ
METAR-TAF:

METAR-TAF

空港 :

Earlton, オンタリオ州, カナダ

緯度: 47-42N, 経度: 079-51W, 海抜: 243m

現時点の気象観測

当レポートは10分前の18:32(UTC)に作成
北/北東の風 3kt
気温 26°C
湿度 70%
気圧 1015 hPa
視程: 14.5km
高度3100ftの雲はほとんどない
高度5500ftの千切れ雲あり
高度8100ftの千切れ雲あり
高度15000ftの千切れ雲あり
小雨

METAR: CYXR 261832Z AUTO 02003KT 9SM -RA FEW031 BKN055 BKN081 BKN150 26/20 A2997 RMK SLP150 DENSITY ALT 2100FT

時間: 14:42 (18:42 UTC)

予報

当レポートは32分前の18:10(UTC)に作成
予報は26日の 18時(UTC)から 26日の 24時(UTC)まで有効
南/南東の風 10kt
視程: 10km
高度4000ftの千切れ雲あり
26日の 18時(UTC)から 26日の 24時(UTC)まで一時的に
視程: 3.2km
高度2000ftの千切れ雲あり
高度3000ftの曇り, 積乱雲.
激しい雷雨, 雨

TAF: CYXR 261810Z 2618/2624 16010KT P6SM BKN040 TEMPO 2618/2624 2SM TSRA BKN020 OVC030CB RMK FCST BASED ON AUTO OBS. NXT FCST WILL BE ISSUED AT 271145Z

4,000以上の空港の気象観測と天気予報(METAR報とTAF報)

利用可能な観測所は地図上に黄色い丸と赤い丸で示す。

丸の上にカーソルを重ねると観測所名を参照できる。

次にクリックすると気象観測と天気予報を参照できる。

マップの切り替え:黒色「×」印の緑ボタンをクリックして拡大、「-」印の緑ボタンをクリックして縮小、緑色の三角印をクリックして隣りの地図に切り替え


METAR-TAF: